sensor_id;sensor_type;location;lat;lon;timestamp;temperature;humidity
14192;DHT22;7177;48.572;7.838;2023-10-08T00:02:27;12.30;99.90
14192;DHT22;7177;48.572;7.838;2023-10-08T00:04:53;12.30;99.90
14192;DHT22;7177;48.572;7.838;2023-10-08T00:07:21;12.30;99.90
14192;DHT22;7177;48.572;7.838;2023-10-08T00:09:50;12.20;99.90
14192;DHT22;7177;48.572;7.838;2023-10-08T00:12:17;12.20;99.90
14192;DHT22;7177;48.572;7.838;2023-10-08T00:14:42;12.10;99.90
14192;DHT22;7177;48.572;7.838;2023-10-08T00:17:15;11.90;99.90
14192;DHT22;7177;48.572;7.838;2023-10-08T00:19:40;11.70;99.90
14192;DHT22;7177;48.572;7.838;2023-10-08T00:22:09;11.60;99.90
14192;DHT22;7177;48.572;7.838;2023-10-08T00:24:35;11.50;99.90
14192;DHT22;7177;48.572;7.838;2023-10-08T00:27:00;11.40;99.90
14192;DHT22;7177;48.572;7.838;2023-10-08T00:29:27;11.40;99.90
14192;DHT22;7177;48.572;7.838;2023-10-08T00:31:56;11.40;99.90
14192;DHT22;7177;48.572;7.838;2023-10-08T00:34:22;11.40;99.90
14192;DHT22;7177;48.572;7.838;2023-10-08T00:36:50;11.40;99.90
14192;DHT22;7177;48.572;7.838;2023-10-08T00:39:16;11.40;99.90
14192;DHT22;7177;48.572;7.838;2023-10-08T00:41:48;11.40;99.90
14192;DHT22;7177;48.572;7.838;2023-10-08T00:44:15;11.30;99.90
14192;DHT22;7177;48.572;7.838;2023-10-08T00:46:48;11.40;99.90
14192;DHT22;7177;48.572;7.838;2023-10-08T00:49:22;11.40;99.90
14192;DHT22;7177;48.572;7.838;2023-10-08T00:51:48;11.40;99.90
14192;DHT22;7177;48.572;7.838;2023-10-08T00:54:26;11.40;99.90
14192;DHT22;7177;48.572;7.838;2023-10-08T00:56:58;11.40;99.90
14192;DHT22;7177;48.572;7.838;2023-10-08T00:59:24;11.40;99.90
14192;DHT22;7177;48.572;7.838;2023-10-08T01:01:51;11.40;99.90
14192;DHT22;7177;48.572;7.838;2023-10-08T01:04:22;11.40;99.90
14192;DHT22;7177;48.572;7.838;2023-10-08T01:06:53;11.40;99.90
14192;DHT22;7177;48.572;7.838;2023-10-08T01:09:27;11.30;99.90
14192;DHT22;7177;48.572;7.838;2023-10-08T01:12:19;11.30;99.90
14192;DHT22;7177;48.572;7.838;2023-10-08T01:14:52;11.20;99.90
14192;DHT22;7177;48.572;7.838;2023-10-08T01:17:25;11.10;99.90
14192;DHT22;7177;48.572;7.838;2023-10-08T01:19:52;11.00;99.90
14192;DHT22;7177;48.572;7.838;2023-10-08T01:22:41;11.10;99.90
14192;DHT22;7177;48.572;7.838;2023-10-08T01:25:06;11.00;99.90
14192;DHT22;7177;48.572;7.838;2023-10-08T01:27:35;11.00;99.90
14192;DHT22;7177;48.572;7.838;2023-10-08T01:30:03;10.90;99.90
14192;DHT22;7177;48.572;7.838;2023-10-08T01:32:43;10.90;99.90
14192;DHT22;7177;48.572;7.838;2023-10-08T01:35:09;10.90;99.90
14192;DHT22;7177;48.572;7.838;2023-10-08T01:37:47;10.90;99.90
14192;DHT22;7177;48.572;7.838;2023-10-08T01:40:14;10.90;99.90
14192;DHT22;7177;48.572;7.838;2023-10-08T01:42:40;10.90;99.90
14192;DHT22;7177;48.572;7.838;2023-10-08T01:45:06;11.30;99.90
14192;DHT22;7177;48.572;7.838;2023-10-08T01:47:35;10.80;99.90
14192;DHT22;7177;48.572;7.838;2023-10-08T01:50:01;10.70;99.90
14192;DHT22;7177;48.572;7.838;2023-10-08T01:52:31;10.70;99.90
14192;DHT22;7177;48.572;7.838;2023-10-08T01:54:56;10.80;99.90
14192;DHT22;7177;48.572;7.838;2023-10-08T01:57:23;10.80;99.90
14192;DHT22;7177;48.572;7.838;2023-10-08T01:59:48;10.90;99.90
14192;DHT22;7177;48.572;7.838;2023-10-08T02:02:14;10.90;99.90
14192;DHT22;7177;48.572;7.838;2023-10-08T02:04:42;10.90;99.90
14192;DHT22;7177;48.572;7.838;2023-10-08T02:07:09;11.00;99.90
14192;DHT22;7177;48.572;7.838;2023-10-08T02:09:38;11.00;99.90
14192;DHT22;7177;48.572;7.838;2023-10-08T02:12:04;11.00;99.90
14192;DHT22;7177;48.572;7.838;2023-10-08T02:14:30;11.00;99.90
14192;DHT22;7177;48.572;7.838;2023-10-08T02:16:57;11.00;99.90
14192;DHT22;7177;48.572;7.838;2023-10-08T02:19:27;11.00;99.90
14192;DHT22;7177;48.572;7.838;2023-10-08T02:21:56;11.00;99.90
14192;DHT22;7177;48.572;7.838;2023-10-08T02:24:23;11.00;99.90
14192;DHT22;7177;48.572;7.838;2023-10-08T02:26:50;11.00;99.90
14192;DHT22;7177;48.572;7.838;2023-10-08T02:29:16;11.00;99.90
14192;DHT22;7177;48.572;7.838;2023-10-08T02:31:41;11.00;99.90
14192;DHT22;7177;48.572;7.838;2023-10-08T02:34:08;11.00;99.90
14192;DHT22;7177;48.572;7.838;2023-10-08T02:36:35;11.00;99.90
14192;DHT22;7177;48.572;7.838;2023-10-08T02:39:05;10.90;99.90
14192;DHT22;7177;48.572;7.838;2023-10-08T02:41:32;10.90;99.90
14192;DHT22;7177;48.572;7.838;2023-10-08T02:43:58;10.90;99.90
14192;DHT22;7177;48.572;7.838;2023-10-08T02:46:30;10.80;99.90
14192;DHT22;7177;48.572;7.838;2023-10-08T02:48:58;10.80;99.90
14192;DHT22;7177;48.572;7.838;2023-10-08T02:51:24;10.70;99.90
14192;DHT22;7177;48.572;7.838;2023-10-08T02:53:50;10.70;99.90
14192;DHT22;7177;48.572;7.838;2023-10-08T02:56:15;10.70;99.90
14192;DHT22;7177;48.572;7.838;2023-10-08T02:58:41;10.60;99.90
14192;DHT22;7177;48.572;7.838;2023-10-08T03:01:09;10.60;99.90
14192;DHT22;7177;48.572;7.838;2023-10-08T03:03:41;10.60;99.90
14192;DHT22;7177;48.572;7.838;2023-10-08T03:06:08;10.60;99.90
14192;DHT22;7177;48.572;7.838;2023-10-08T03:08:40;10.50;99.90
14192;DHT22;7177;48.572;7.838;2023-10-08T03:11:09;10.50;99.90
14192;DHT22;7177;48.572;7.838;2023-10-08T03:13:44;10.50;99.90
14192;DHT22;7177;48.572;7.838;2023-10-08T03:16:13;10.50;99.90
14192;DHT22;7177;48.572;7.838;2023-10-08T03:18:40;10.50;99.90
14192;DHT22;7177;48.572;7.838;2023-10-08T03:21:11;10.50;99.90
14192;DHT22;7177;48.572;7.838;2023-10-08T03:23:46;10.50;99.90
14192;DHT22;7177;48.572;7.838;2023-10-08T03:26:13;10.50;99.90
14192;DHT22;7177;48.572;7.838;2023-10-08T03:29:00;10.50;99.90
14192;DHT22;7177;48.572;7.838;2023-10-08T03:31:26;10.50;99.90
14192;DHT22;7177;48.572;7.838;2023-10-08T03:34:16;10.50;99.90
14192;DHT22;7177;48.572;7.838;2023-10-08T03:36:44;10.50;99.90
14192;DHT22;7177;48.572;7.838;2023-10-08T03:39:10;10.40;99.90
14192;DHT22;7177;48.572;7.838;2023-10-08T03:41:40;10.40;99.90
14192;DHT22;7177;48.572;7.838;2023-10-08T03:44:07;10.30;99.90
14192;DHT22;7177;48.572;7.838;2023-10-08T03:46:39;10.30;99.90
14192;DHT22;7177;48.572;7.838;2023-10-08T03:49:09;10.30;99.90
14192;DHT22;7177;48.572;7.838;2023-10-08T03:51:47;10.20;99.90
14192;DHT22;7177;48.572;7.838;2023-10-08T03:54:14;10.20;99.90
14192;DHT22;7177;48.572;7.838;2023-10-08T03:56:40;10.20;99.90
14192;DHT22;7177;48.572;7.838;2023-10-08T03:59:15;10.20;99.90
14192;DHT22;7177;48.572;7.838;2023-10-08T04:01:47;10.20;99.90
14192;DHT22;7177;48.572;7.838;2023-10-08T04:04:20;10.20;99.90
14192;DHT22;7177;48.572;7.838;2023-10-08T04:06:47;10.30;99.90
14192;DHT22;7177;48.572;7.838;2023-10-08T04:09:20;10.40;99.90
14192;DHT22;7177;48.572;7.838;2023-10-08T04:11:46;10.40;99.90
14192;DHT22;7177;48.572;7.838;2023-10-08T04:14:14;10.50;99.90
14192;DHT22;7177;48.572;7.838;2023-10-08T04:16:42;10.40;99.90
14192;DHT22;7177;48.572;7.838;2023-10-08T04:19:07;10.40;99.90
14192;DHT22;7177;48.572;7.838;2023-10-08T04:21:33;10.40;99.90
14192;DHT22;7177;48.572;7.838;2023-10-08T04:24:00;10.40;99.90
14192;DHT22;7177;48.572;7.838;2023-10-08T04:26:29;10.40;99.90
14192;DHT22;7177;48.572;7.838;2023-10-08T04:28:55;10.40;99.90
14192;DHT22;7177;48.572;7.838;2023-10-08T04:31:23;10.40;99.90
14192;DHT22;7177;48.572;7.838;2023-10-08T04:33:54;10.40;99.90
14192;DHT22;7177;48.572;7.838;2023-10-08T04:36:20;10.40;99.90
14192;DHT22;7177;48.572;7.838;2023-10-08T04:38:46;10.40;99.90
14192;DHT22;7177;48.572;7.838;2023-10-08T04:41:19;10.40;99.90
14192;DHT22;7177;48.572;7.838;2023-10-08T04:43:45;10.40;99.90
14192;DHT22;7177;48.572;7.838;2023-10-08T04:46:11;10.30;99.90
14192;DHT22;7177;48.572;7.838;2023-10-08T04:48:47;10.30;99.90
14192;DHT22;7177;48.572;7.838;2023-10-08T04:51:15;10.30;99.90
14192;DHT22;7177;48.572;7.838;2023-10-08T04:53:43;10.30;99.90
14192;DHT22;7177;48.572;7.838;2023-10-08T04:56:12;10.20;99.90
14192;DHT22;7177;48.572;7.838;2023-10-08T04:58:48;10.20;99.90
14192;DHT22;7177;48.572;7.838;2023-10-08T05:01:18;10.10;99.90
14192;DHT22;7177;48.572;7.838;2023-10-08T05:03:48;10.10;99.90
14192;DHT22;7177;48.572;7.838;2023-10-08T05:06:33;10.10;99.90
14192;DHT22;7177;48.572;7.838;2023-10-08T05:09:03;10.10;99.90
14192;DHT22;7177;48.572;7.838;2023-10-08T05:11:51;10.20;99.90
14192;DHT22;7177;48.572;7.838;2023-10-08T05:14:21;10.20;99.90
14192;DHT22;7177;48.572;7.838;2023-10-08T05:17:04;10.10;99.90
14192;DHT22;7177;48.572;7.838;2023-10-08T05:19:40;10.10;99.90
14192;DHT22;7177;48.572;7.838;2023-10-08T05:22:12;10.10;99.90
14192;DHT22;7177;48.572;7.838;2023-10-08T05:25:07;10.50;99.90
14192;DHT22;7177;48.572;7.838;2023-10-08T05:27:38;11.00;99.90
14192;DHT22;7177;48.572;7.838;2023-10-08T05:30:26;11.30;99.90
14192;DHT22;7177;48.572;7.838;2023-10-08T05:33:05;11.30;99.90
14192;DHT22;7177;48.572;7.838;2023-10-08T05:35:51;11.40;99.90
14192;DHT22;7177;48.572;7.838;2023-10-08T05:38:22;11.50;99.90
14192;DHT22;7177;48.572;7.838;2023-10-08T05:40:59;11.60;99.90
14192;DHT22;7177;48.572;7.838;2023-10-08T05:43:30;11.60;99.90
14192;DHT22;7177;48.572;7.838;2023-10-08T05:46:09;11.50;99.90
14192;DHT22;7177;48.572;7.838;2023-10-08T05:48:59;11.20;99.90
14192;DHT22;7177;48.572;7.838;2023-10-08T05:51:34;11.00;99.90
14192;DHT22;7177;48.572;7.838;2023-10-08T05:54:30;10.80;99.90
14192;DHT22;7177;48.572;7.838;2023-10-08T05:57:01;10.60;99.90
14192;DHT22;7177;48.572;7.838;2023-10-08T05:59:50;10.50;99.90
14192;DHT22;7177;48.572;7.838;2023-10-08T06:02:19;10.40;99.90
14192;DHT22;7177;48.572;7.838;2023-10-08T06:05:09;10.40;99.90
14192;DHT22;7177;48.572;7.838;2023-10-08T06:07:38;10.40;99.90
14192;DHT22;7177;48.572;7.838;2023-10-08T06:10:14;10.30;99.90
14192;DHT22;7177;48.572;7.838;2023-10-08T06:12:57;10.30;99.90
14192;DHT22;7177;48.572;7.838;2023-10-08T06:18:27;10.40;99.90
14192;DHT22;7177;48.572;7.838;2023-10-08T06:20:53;10.50;99.90
14192;DHT22;7177;48.572;7.838;2023-10-08T06:23:24;10.60;99.90
14192;DHT22;7177;48.572;7.838;2023-10-08T06:25:52;10.60;99.90
14192;DHT22;7177;48.572;7.838;2023-10-08T06:28:25;10.60;99.90
14192;DHT22;7177;48.572;7.838;2023-10-08T06:30:53;10.60;99.90
14192;DHT22;7177;48.572;7.838;2023-10-08T06:33:20;10.70;99.90
14192;DHT22;7177;48.572;7.838;2023-10-08T06:35:46;10.70;99.90
14192;DHT22;7177;48.572;7.838;2023-10-08T06:38:27;10.80;99.90
14192;DHT22;7177;48.572;7.838;2023-10-08T06:40:56;10.80;99.90
14192;DHT22;7177;48.572;7.838;2023-10-08T06:43:28;10.90;99.90
14192;DHT22;7177;48.572;7.838;2023-10-08T06:45:54;11.00;99.90
14192;DHT22;7177;48.572;7.838;2023-10-08T06:48:24;11.10;99.90
14192;DHT22;7177;48.572;7.838;2023-10-08T06:50:51;11.20;99.90
14192;DHT22;7177;48.572;7.838;2023-10-08T06:53:17;11.20;99.90
14192;DHT22;7177;48.572;7.838;2023-10-08T06:55:47;11.20;99.90
14192;DHT22;7177;48.572;7.838;2023-10-08T06:58:24;11.30;99.90
14192;DHT22;7177;48.572;7.838;2023-10-08T07:00:52;11.40;99.90
14192;DHT22;7177;48.572;7.838;2023-10-08T07:03:18;11.40;99.90
14192;DHT22;7177;48.572;7.838;2023-10-08T07:05:45;11.60;99.90
14192;DHT22;7177;48.572;7.838;2023-10-08T07:08:23;11.60;99.90
14192;DHT22;7177;48.572;7.838;2023-10-08T07:10:50;11.70;99.90
14192;DHT22;7177;48.572;7.838;2023-10-08T07:13:17;11.70;99.90
14192;DHT22;7177;48.572;7.838;2023-10-08T07:15:50;11.80;99.90
14192;DHT22;7177;48.572;7.838;2023-10-08T07:18:16;11.90;99.90
14192;DHT22;7177;48.572;7.838;2023-10-08T07:20:51;11.90;99.90
14192;DHT22;7177;48.572;7.838;2023-10-08T07:23:20;12.10;99.90
14192;DHT22;7177;48.572;7.838;2023-10-08T07:25:54;12.10;99.90
14192;DHT22;7177;48.572;7.838;2023-10-08T07:28:27;12.20;99.90
14192;DHT22;7177;48.572;7.838;2023-10-08T07:30:54;12.40;99.90
14192;DHT22;7177;48.572;7.838;2023-10-08T07:33:20;12.40;99.90
14192;DHT22;7177;48.572;7.838;2023-10-08T07:35:50;12.50;99.90
14192;DHT22;7177;48.572;7.838;2023-10-08T07:38:37;12.80;99.90
14192;DHT22;7177;48.572;7.838;2023-10-08T07:41:03;13.40;99.90
14192;DHT22;7177;48.572;7.838;2023-10-08T07:43:31;13.80;99.90
14192;DHT22;7177;48.572;7.838;2023-10-08T07:45:58;14.30;99.90
14192;DHT22;7177;48.572;7.838;2023-10-08T07:48:23;14.60;99.90
14192;DHT22;7177;48.572;7.838;2023-10-08T07:50:55;14.80;99.90
14192;DHT22;7177;48.572;7.838;2023-10-08T07:53:23;15.10;99.90
14192;DHT22;7177;48.572;7.838;2023-10-08T07:55:50;15.20;99.90
14192;DHT22;7177;48.572;7.838;2023-10-08T07:58:16;15.50;99.90
14192;DHT22;7177;48.572;7.838;2023-10-08T08:00:42;15.90;99.90
14192;DHT22;7177;48.572;7.838;2023-10-08T08:03:07;16.40;99.90
14192;DHT22;7177;48.572;7.838;2023-10-08T08:05:33;17.10;99.90
14192;DHT22;7177;48.572;7.838;2023-10-08T08:07:59;17.70;99.90
14192;DHT22;7177;48.572;7.838;2023-10-08T08:10:31;18.10;99.90
14192;DHT22;7177;48.572;7.838;2023-10-08T08:13:03;18.40;99.90
14192;DHT22;7177;48.572;7.838;2023-10-08T08:15:32;18.60;99.90
14192;DHT22;7177;48.572;7.838;2023-10-08T08:17:58;18.80;99.90
14192;DHT22;7177;48.572;7.838;2023-10-08T08:20:24;19.00;99.90
14192;DHT22;7177;48.572;7.838;2023-10-08T08:23:00;19.20;99.90
14192;DHT22;7177;48.572;7.838;2023-10-08T08:25:38;19.40;99.90
14192;DHT22;7177;48.572;7.838;2023-10-08T08:28:11;19.50;99.90
14192;DHT22;7177;48.572;7.838;2023-10-08T08:30:45;19.50;99.90
14192;DHT22;7177;48.572;7.838;2023-10-08T08:33:13;19.80;99.90
14192;DHT22;7177;48.572;7.838;2023-10-08T08:35:38;20.10;99.90
14192;DHT22;7177;48.572;7.838;2023-10-08T08:38:04;20.40;99.90
14192;DHT22;7177;48.572;7.838;2023-10-08T08:40:31;20.80;99.90
14192;DHT22;7177;48.572;7.838;2023-10-08T08:42:59;21.10;99.90
14192;DHT22;7177;48.572;7.838;2023-10-08T08:45:27;21.30;99.90
14192;DHT22;7177;48.572;7.838;2023-10-08T08:47:57;21.70;99.90
14192;DHT22;7177;48.572;7.838;2023-10-08T08:50:23;22.10;99.90
14192;DHT22;7177;48.572;7.838;2023-10-08T08:52:48;22.20;99.90
14192;DHT22;7177;48.572;7.838;2023-10-08T08:55:15;22.20;99.90
14192;DHT22;7177;48.572;7.838;2023-10-08T08:57:42;22.40;99.90
14192;DHT22;7177;48.572;7.838;2023-10-08T09:00:11;22.70;99.60
14192;DHT22;7177;48.572;7.838;2023-10-08T09:02:40;23.00;98.70
14192;DHT22;7177;48.572;7.838;2023-10-08T09:05:06;23.20;97.50
14192;DHT22;7177;48.572;7.838;2023-10-08T09:07:54;23.20;96.80
14192;DHT22;7177;48.572;7.838;2023-10-08T09:10:21;23.10;96.70
14192;DHT22;7177;48.572;7.838;2023-10-08T09:12:52;23.00;96.20
14192;DHT22;7177;48.572;7.838;2023-10-08T09:15:19;23.00;96.70
14192;DHT22;7177;48.572;7.838;2023-10-08T09:17:48;22.90;98.80
14192;DHT22;7177;48.572;7.838;2023-10-08T09:20:14;22.80;96.80
14192;DHT22;7177;48.572;7.838;2023-10-08T09:22:40;22.90;96.90
14192;DHT22;7177;48.572;7.838;2023-10-08T09:25:06;23.00;96.50
14192;DHT22;7177;48.572;7.838;2023-10-08T09:27:33;23.10;95.50
14192;DHT22;7177;48.572;7.838;2023-10-08T09:29:58;23.30;96.30
14192;DHT22;7177;48.572;7.838;2023-10-08T09:32:33;23.70;95.30
14192;DHT22;7177;48.572;7.838;2023-10-08T09:34:59;24.10;94.20
14192;DHT22;7177;48.572;7.838;2023-10-08T09:37:25;23.80;94.20
14192;DHT22;7177;48.572;7.838;2023-10-08T09:39:52;23.50;94.80
14192;DHT22;7177;48.572;7.838;2023-10-08T09:42:19;23.20;95.30
14192;DHT22;7177;48.572;7.838;2023-10-08T09:44:47;23.20;95.80
14192;DHT22;7177;48.572;7.838;2023-10-08T09:47:19;23.50;94.90
14192;DHT22;7177;48.572;7.838;2023-10-08T09:50:05;24.10;94.50
14192;DHT22;7177;48.572;7.838;2023-10-08T09:52:49;24.20;94.20
14192;DHT22;7177;48.572;7.838;2023-10-08T09:55:19;24.50;94.00
14192;DHT22;7177;48.572;7.838;2023-10-08T09:57:45;24.80;94.00
14192;DHT22;7177;48.572;7.838;2023-10-08T10:00:11;24.80;92.40
14192;DHT22;7177;48.572;7.838;2023-10-08T10:02:43;24.50;92.40
14192;DHT22;7177;48.572;7.838;2023-10-08T10:05:12;24.40;91.40
14192;DHT22;7177;48.572;7.838;2023-10-08T10:07:44;24.50;91.60
14192;DHT22;7177;48.572;7.838;2023-10-08T10:10:29;24.50;91.20
14192;DHT22;7177;48.572;7.838;2023-10-08T10:13:00;24.20;91.20
14192;DHT22;7177;48.572;7.838;2023-10-08T10:15:27;24.10;92.00
14192;DHT22;7177;48.572;7.838;2023-10-08T10:18:07;24.30;91.20
14192;DHT22;7177;48.572;7.838;2023-10-08T10:20:34;24.60;91.20
14192;DHT22;7177;48.572;7.838;2023-10-08T10:22:59;24.90;90.80
14192;DHT22;7177;48.572;7.838;2023-10-08T10:25:34;24.50;91.50
14192;DHT22;7177;48.572;7.838;2023-10-08T10:30:32;24.90;89.70
14192;DHT22;7177;48.572;7.838;2023-10-08T10:33:02;25.10;89.10
14192;DHT22;7177;48.572;7.838;2023-10-08T10:35:31;25.40;89.20
14192;DHT22;7177;48.572;7.838;2023-10-08T10:37:58;26.00;88.30
14192;DHT22;7177;48.572;7.838;2023-10-08T10:40:29;26.20;87.10
14192;DHT22;7177;48.572;7.838;2023-10-08T10:42:58;26.20;87.10
14192;DHT22;7177;48.572;7.838;2023-10-08T10:45:28;26.50;86.20
14192;DHT22;7177;48.572;7.838;2023-10-08T10:48:08;26.80;85.20
14192;DHT22;7177;48.572;7.838;2023-10-08T10:50:56;26.50;83.70
14192;DHT22;7177;48.572;7.838;2023-10-08T10:53:31;26.20;86.30
14192;DHT22;7177;48.572;7.838;2023-10-08T10:55:58;26.50;86.00
14192;DHT22;7177;48.572;7.838;2023-10-08T10:58:25;26.50;84.70
14192;DHT22;7177;48.572;7.838;2023-10-08T11:00:51;26.30;84.30
14192;DHT22;7177;48.572;7.838;2023-10-08T11:03:24;26.20;84.90
14192;DHT22;7177;48.572;7.838;2023-10-08T11:06:00;26.40;83.30
14192;DHT22;7177;48.572;7.838;2023-10-08T11:08:31;26.50;83.60
14192;DHT22;7177;48.572;7.838;2023-10-08T11:11:00;26.90;82.00
14192;DHT22;7177;48.572;7.838;2023-10-08T11:13:32;27.30;81.70
14192;DHT22;7177;48.572;7.838;2023-10-08T11:16:04;27.80;80.70
14192;DHT22;7177;48.572;7.838;2023-10-08T11:18:30;28.30;76.80
14192;DHT22;7177;48.572;7.838;2023-10-08T11:21:06;28.30;75.80
14192;DHT22;7177;48.572;7.838;2023-10-08T11:23:49;28.50;76.00
14192;DHT22;7177;48.572;7.838;2023-10-08T11:26:19;29.20;76.70
14192;DHT22;7177;48.572;7.838;2023-10-08T11:28:45;29.50;70.50
14192;DHT22;7177;48.572;7.838;2023-10-08T11:31:16;29.30;70.10
14192;DHT22;7177;48.572;7.838;2023-10-08T11:33:45;28.70;74.00
14192;DHT22;7177;48.572;7.838;2023-10-08T11:36:20;28.80;70.90
14192;DHT22;7177;48.572;7.838;2023-10-08T11:38:50;28.50;70.40
14192;DHT22;7177;48.572;7.838;2023-10-08T11:41:18;28.90;71.80
14192;DHT22;7177;48.572;7.838;2023-10-08T11:43:50;29.10;67.80
14192;DHT22;7177;48.572;7.838;2023-10-08T11:46:26;29.30;68.80
14192;DHT22;7177;48.572;7.838;2023-10-08T11:48:59;29.20;66.90
14192;DHT22;7177;48.572;7.838;2023-10-08T11:51:30;29.40;68.30
14192;DHT22;7177;48.572;7.838;2023-10-08T11:53:57;29.70;66.90
14192;DHT22;7177;48.572;7.838;2023-10-08T11:56:24;30.10;65.20
14192;DHT22;7177;48.572;7.838;2023-10-08T11:58:49;30.20;64.50
14192;DHT22;7177;48.572;7.838;2023-10-08T12:01:16;30.50;63.20
14192;DHT22;7177;48.572;7.838;2023-10-08T12:03:46;30.40;62.90
14192;DHT22;7177;48.572;7.838;2023-10-08T12:06:12;30.70;61.20
14192;DHT22;7177;48.572;7.838;2023-10-08T12:08:41;31.00;61.20
14192;DHT22;7177;48.572;7.838;2023-10-08T12:11:07;31.00;61.40
14192;DHT22;7177;48.572;7.838;2023-10-08T12:13:38;30.80;59.60
14192;DHT22;7177;48.572;7.838;2023-10-08T12:16:03;30.70;59.50
14192;DHT22;7177;48.572;7.838;2023-10-08T12:18:38;30.70;59.40
14192;DHT22;7177;48.572;7.838;2023-10-08T12:21:08;30.40;58.90
14192;DHT22;7177;48.572;7.838;2023-10-08T12:23:40;30.00;59.00
14192;DHT22;7177;48.572;7.838;2023-10-08T12:26:06;30.00;60.90
14192;DHT22;7177;48.572;7.838;2023-10-08T12:28:33;30.10;59.70
14192;DHT22;7177;48.572;7.838;2023-10-08T12:30:59;30.10;59.50
14192;DHT22;7177;48.572;7.838;2023-10-08T12:33:26;30.40;59.80
14192;DHT22;7177;48.572;7.838;2023-10-08T12:35:52;30.80;61.00
14192;DHT22;7177;48.572;7.838;2023-10-08T12:38:19;31.20;60.90
14192;DHT22;7177;48.572;7.838;2023-10-08T12:40:48;31.40;57.20
14192;DHT22;7177;48.572;7.838;2023-10-08T12:43:21;31.50;57.80
14192;DHT22;7177;48.572;7.838;2023-10-08T12:45:51;31.60;57.10
14192;DHT22;7177;48.572;7.838;2023-10-08T12:48:27;31.60;56.60
14192;DHT22;7177;48.572;7.838;2023-10-08T12:50:53;31.50;58.40
14192;DHT22;7177;48.572;7.838;2023-10-08T12:53:22;31.60;56.10
14192;DHT22;7177;48.572;7.838;2023-10-08T12:56:14;31.90;57.10
14192;DHT22;7177;48.572;7.838;2023-10-08T12:58:41;31.60;55.10
14192;DHT22;7177;48.572;7.838;2023-10-08T13:01:12;31.40;57.30
14192;DHT22;7177;48.572;7.838;2023-10-08T13:03:39;31.10;58.70
14192;DHT22;7177;48.572;7.838;2023-10-08T13:06:13;31.20;58.00
14192;DHT22;7177;48.572;7.838;2023-10-08T13:08:53;31.20;56.50
14192;DHT22;7177;48.572;7.838;2023-10-08T13:11:20;31.00;54.30
14192;DHT22;7177;48.572;7.838;2023-10-08T13:13:49;30.80;55.60
14192;DHT22;7177;48.572;7.838;2023-10-08T13:16:15;30.70;57.80
14192;DHT22;7177;48.572;7.838;2023-10-08T13:18:40;30.70;57.90
14192;DHT22;7177;48.572;7.838;2023-10-08T13:21:09;30.80;56.70
14192;DHT22;7177;48.572;7.838;2023-10-08T13:23:35;30.70;55.80
14192;DHT22;7177;48.572;7.838;2023-10-08T13:26:01;30.50;56.80
14192;DHT22;7177;48.572;7.838;2023-10-08T13:28:30;30.10;56.80
14192;DHT22;7177;48.572;7.838;2023-10-08T13:31:02;30.20;57.20
14192;DHT22;7177;48.572;7.838;2023-10-08T13:33:41;30.40;57.10
14192;DHT22;7177;48.572;7.838;2023-10-08T13:36:15;30.40;57.00
14192;DHT22;7177;48.572;7.838;2023-10-08T13:38:41;30.50;57.10
14192;DHT22;7177;48.572;7.838;2023-10-08T13:41:07;30.20;57.90
14192;DHT22;7177;48.572;7.838;2023-10-08T13:43:50;29.90;58.90
14192;DHT22;7177;48.572;7.838;2023-10-08T13:46:24;29.80;58.50
14192;DHT22;7177;48.572;7.838;2023-10-08T13:48:50;29.80;59.30
14192;DHT22;7177;48.572;7.838;2023-10-08T13:51:18;29.90;59.80
14192;DHT22;7177;48.572;7.838;2023-10-08T13:53:52;30.00;59.40
14192;DHT22;7177;48.572;7.838;2023-10-08T13:56:20;30.00;59.20
14192;DHT22;7177;48.572;7.838;2023-10-08T13:58:53;29.90;60.50
14192;DHT22;7177;48.572;7.838;2023-10-08T14:01:29;29.80;59.60
14192;DHT22;7177;48.572;7.838;2023-10-08T14:03:54;29.70;61.30
14192;DHT22;7177;48.572;7.838;2023-10-08T14:06:29;29.90;61.90
14192;DHT22;7177;48.572;7.838;2023-10-08T14:08:56;30.10;61.10
14192;DHT22;7177;48.572;7.838;2023-10-08T14:11:22;30.30;58.60
14192;DHT22;7177;48.572;7.838;2023-10-08T14:13:50;30.20;58.80
14192;DHT22;7177;48.572;7.838;2023-10-08T14:16:17;30.00;59.00
14192;DHT22;7177;48.572;7.838;2023-10-08T14:18:44;29.80;59.90
14192;DHT22;7177;48.572;7.838;2023-10-08T14:21:16;29.50;61.40
14192;DHT22;7177;48.572;7.838;2023-10-08T14:23:43;29.50;62.80
14192;DHT22;7177;48.572;7.838;2023-10-08T14:26:09;29.50;61.60
14192;DHT22;7177;48.572;7.838;2023-10-08T14:28:36;29.40;64.10
14192;DHT22;7177;48.572;7.838;2023-10-08T14:31:16;29.40;62.50
14192;DHT22;7177;48.572;7.838;2023-10-08T14:33:43;29.60;63.80
14192;DHT22;7177;48.572;7.838;2023-10-08T14:36:22;29.70;63.70
14192;DHT22;7177;48.572;7.838;2023-10-08T14:39:06;29.70;66.00
14192;DHT22;7177;48.572;7.838;2023-10-08T14:41:50;29.50;64.90
14192;DHT22;7177;48.572;7.838;2023-10-08T14:44:34;29.70;62.60
14192;DHT22;7177;48.572;7.838;2023-10-08T14:47:00;29.70;65.00
14192;DHT22;7177;48.572;7.838;2023-10-08T14:49:25;29.60;63.10
14192;DHT22;7177;48.572;7.838;2023-10-08T14:51:51;29.50;63.60
14192;DHT22;7177;48.572;7.838;2023-10-08T14:54:18;29.40;63.20
14192;DHT22;7177;48.572;7.838;2023-10-08T14:56:46;29.30;64.30
14192;DHT22;7177;48.572;7.838;2023-10-08T14:59:11;29.40;65.50
14192;DHT22;7177;48.572;7.838;2023-10-08T15:01:37;29.40;63.90
14192;DHT22;7177;48.572;7.838;2023-10-08T15:04:04;29.50;62.90
14192;DHT22;7177;48.572;7.838;2023-10-08T15:06:32;29.60;63.10
14192;DHT22;7177;48.572;7.838;2023-10-08T15:08:58;29.40;64.10
14192;DHT22;7177;48.572;7.838;2023-10-08T15:11:24;29.60;63.40
14192;DHT22;7177;48.572;7.838;2023-10-08T15:13:52;29.70;63.20
14192;DHT22;7177;48.572;7.838;2023-10-08T15:16:19;29.50;62.90
14192;DHT22;7177;48.572;7.838;2023-10-08T15:18:48;29.40;63.10
14192;DHT22;7177;48.572;7.838;2023-10-08T15:21:14;29.20;65.20
14192;DHT22;7177;48.572;7.838;2023-10-08T15:23:40;29.10;65.30
14192;DHT22;7177;48.572;7.838;2023-10-08T15:26:06;28.90;66.20
14192;DHT22;7177;48.572;7.838;2023-10-08T15:28:32;28.80;66.70
14192;DHT22;7177;48.572;7.838;2023-10-08T15:30:58;28.70;66.70
14192;DHT22;7177;48.572;7.838;2023-10-08T15:33:23;28.50;67.80
14192;DHT22;7177;48.572;7.838;2023-10-08T15:35:52;28.40;69.20
14192;DHT22;7177;48.572;7.838;2023-10-08T15:38:23;28.30;70.10
14192;DHT22;7177;48.572;7.838;2023-10-08T15:40:50;28.10;70.60
14192;DHT22;7177;48.572;7.838;2023-10-08T15:43:16;27.90;70.00
14192;DHT22;7177;48.572;7.838;2023-10-08T15:45:41;27.60;70.80
14192;DHT22;7177;48.572;7.838;2023-10-08T15:48:07;27.30;73.40
14192;DHT22;7177;48.572;7.838;2023-10-08T15:50:33;27.00;74.40
14192;DHT22;7177;48.572;7.838;2023-10-08T15:52:59;26.80;74.50
14192;DHT22;7177;48.572;7.838;2023-10-08T15:55:24;26.60;75.00
14192;DHT22;7177;48.572;7.838;2023-10-08T15:57:51;26.40;76.10
14192;DHT22;7177;48.572;7.838;2023-10-08T16:00:17;26.30;77.00
14192;DHT22;7177;48.572;7.838;2023-10-08T16:02:43;26.20;77.50
14192;DHT22;7177;48.572;7.838;2023-10-08T16:05:11;26.10;78.90
14192;DHT22;7177;48.572;7.838;2023-10-08T16:07:37;25.90;78.50
14192;DHT22;7177;48.572;7.838;2023-10-08T16:10:03;25.70;77.10